sensor_id;sensor_type;location;lat;lon;timestamp;P1;durP1;ratioP1;P2;durP2;ratioP2
80175;SDS011;69501;42.124;24.722;2023-05-07T00:01:15;4.45;;;4.07;;
80175;SDS011;69501;42.124;24.722;2023-05-07T00:03:41;5.97;;;4.45;;
80175;SDS011;69501;42.124;24.722;2023-05-07T00:06:06;11.10;;;5.00;;
80175;SDS011;69501;42.124;24.722;2023-05-07T00:08:32;5.93;;;4.45;;
80175;SDS011;69501;42.124;24.722;2023-05-07T00:10:58;6.88;;;4.47;;
80175;SDS011;69501;42.124;24.722;2023-05-07T00:13:23;8.80;;;5.55;;
80175;SDS011;69501;42.124;24.722;2023-05-07T00:15:49;8.38;;;5.57;;
80175;SDS011;69501;42.124;24.722;2023-05-07T00:18:14;14.27;;;6.30;;
80175;SDS011;69501;42.124;24.722;2023-05-07T00:20:40;8.75;;;5.97;;
80175;SDS011;69501;42.124;24.722;2023-05-07T00:23:06;8.02;;;5.53;;
80175;SDS011;69501;42.124;24.722;2023-05-07T00:25:32;8.18;;;5.47;;
80175;SDS011;69501;42.124;24.722;2023-05-07T00:27:57;9.63;;;4.85;;
80175;SDS011;69501;42.124;24.722;2023-05-07T00:30:28;8.60;;;4.28;;
80175;SDS011;69501;42.124;24.722;2023-05-07T00:32:54;7.88;;;4.30;;
80175;SDS011;69501;42.124;24.722;2023-05-07T00:35:19;5.53;;;4.45;;
80175;SDS011;69501;42.124;24.722;2023-05-07T00:37:45;5.35;;;4.03;;
80175;SDS011;69501;42.124;24.722;2023-05-07T00:40:11;5.45;;;4.22;;
80175;SDS011;69501;42.124;24.722;2023-05-07T00:42:37;3.90;;;3.53;;
80175;SDS011;69501;42.124;24.722;2023-05-07T00:45:03;5.55;;;3.92;;
80175;SDS011;69501;42.124;24.722;2023-05-07T00:47:29;5.57;;;3.72;;
80175;SDS011;69501;42.124;24.722;2023-05-07T00:49:55;4.65;;;3.42;;
80175;SDS011;69501;42.124;24.722;2023-05-07T00:52:22;4.80;;;3.78;;
80175;SDS011;69501;42.124;24.722;2023-05-07T00:54:50;9.60;;;4.00;;
80175;SDS011;69501;42.124;24.722;2023-05-07T00:57:17;5.03;;;4.47;;
80175;SDS011;69501;42.124;24.722;2023-05-07T00:59:42;7.25;;;4.93;;
80175;SDS011;69501;42.124;24.722;2023-05-07T01:02:08;6.68;;;5.93;;
80175;SDS011;69501;42.124;24.722;2023-05-07T01:04:34;9.40;;;8.60;;
80175;SDS011;69501;42.124;24.722;2023-05-07T01:07:00;8.35;;;7.65;;
80175;SDS011;69501;42.124;24.722;2023-05-07T01:09:26;9.68;;;7.28;;
80175;SDS011;69501;42.124;24.722;2023-05-07T01:11:53;7.53;;;6.20;;
80175;SDS011;69501;42.124;24.722;2023-05-07T01:14:22;7.88;;;7.13;;
80175;SDS011;69501;42.124;24.722;2023-05-07T01:16:48;7.20;;;6.50;;
80175;SDS011;69501;42.124;24.722;2023-05-07T01:19:18;6.82;;;6.13;;
80175;SDS011;69501;42.124;24.722;2023-05-07T01:21:47;7.18;;;5.80;;
80175;SDS011;69501;42.124;24.722;2023-05-07T01:24:13;6.22;;;5.20;;
80175;SDS011;69501;42.124;24.722;2023-05-07T01:26:40;6.65;;;5.75;;
80175;SDS011;69501;42.124;24.722;2023-05-07T01:29:06;5.78;;;5.30;;
80175;SDS011;69501;42.124;24.722;2023-05-07T01:31:32;4.85;;;4.47;;
80175;SDS011;69501;42.124;24.722;2023-05-07T01:33:59;5.18;;;4.63;;
80175;SDS011;69501;42.124;24.722;2023-05-07T01:36:26;4.85;;;4.22;;
80175;SDS011;69501;42.124;24.722;2023-05-07T01:38:55;5.25;;;4.65;;
80175;SDS011;69501;42.124;24.722;2023-05-07T01:41:22;11.30;;;9.38;;
80175;SDS011;69501;42.124;24.722;2023-05-07T01:43:48;12.60;;;11.30;;
80175;SDS011;69501;42.124;24.722;2023-05-07T01:46:16;8.32;;;7.70;;
80175;SDS011;69501;42.124;24.722;2023-05-07T01:48:43;6.82;;;5.47;;
80175;SDS011;69501;42.124;24.722;2023-05-07T01:51:11;7.80;;;5.00;;
80175;SDS011;69501;42.124;24.722;2023-05-07T01:53:37;5.57;;;5.07;;
80175;SDS011;69501;42.124;24.722;2023-05-07T01:56:04;5.05;;;4.40;;
80175;SDS011;69501;42.124;24.722;2023-05-07T01:58:30;6.50;;;4.45;;
80175;SDS011;69501;42.124;24.722;2023-05-07T02:00:56;4.53;;;4.18;;
80175;SDS011;69501;42.124;24.722;2023-05-07T02:03:21;8.48;;;5.15;;
80175;SDS011;69501;42.124;24.722;2023-05-07T02:05:47;5.35;;;4.80;;
80175;SDS011;69501;42.124;24.722;2023-05-07T02:08:13;5.05;;;4.65;;
80175;SDS011;69501;42.124;24.722;2023-05-07T02:10:38;5.40;;;4.95;;
80175;SDS011;69501;42.124;24.722;2023-05-07T02:13:04;5.43;;;4.72;;
80175;SDS011;69501;42.124;24.722;2023-05-07T02:15:30;7.10;;;5.03;;
80175;SDS011;69501;42.124;24.722;2023-05-07T02:18:02;5.05;;;4.65;;
80175;SDS011;69501;42.124;24.722;2023-05-07T02:20:31;7.50;;;5.43;;
80175;SDS011;69501;42.124;24.722;2023-05-07T02:22:57;6.28;;;4.82;;
80175;SDS011;69501;42.124;24.722;2023-05-07T02:25:22;6.03;;;5.10;;
80175;SDS011;69501;42.124;24.722;2023-05-07T02:27:48;5.28;;;4.85;;
80175;SDS011;69501;42.124;24.722;2023-05-07T02:30:14;6.22;;;4.93;;
80175;SDS011;69501;42.124;24.722;2023-05-07T02:32:40;6.75;;;4.97;;
80175;SDS011;69501;42.124;24.722;2023-05-07T02:35:06;5.28;;;4.88;;
80175;SDS011;69501;42.124;24.722;2023-05-07T02:37:32;5.10;;;4.70;;
80175;SDS011;69501;42.124;24.722;2023-05-07T02:39:57;6.55;;;4.85;;
80175;SDS011;69501;42.124;24.722;2023-05-07T02:42:23;6.60;;;4.88;;
80175;SDS011;69501;42.124;24.722;2023-05-07T02:44:48;6.35;;;4.95;;
80175;SDS011;69501;42.124;24.722;2023-05-07T02:47:14;7.90;;;5.43;;
80175;SDS011;69501;42.124;24.722;2023-05-07T02:49:40;5.18;;;4.70;;
80175;SDS011;69501;42.124;24.722;2023-05-07T02:52:06;5.25;;;4.85;;
80175;SDS011;69501;42.124;24.722;2023-05-07T02:54:32;6.30;;;5.20;;
80175;SDS011;69501;42.124;24.722;2023-05-07T02:56:58;5.97;;;4.90;;
80175;SDS011;69501;42.124;24.722;2023-05-07T02:59:25;5.78;;;5.28;;
80175;SDS011;69501;42.124;24.722;2023-05-07T03:01:51;6.38;;;5.35;;
80175;SDS011;69501;42.124;24.722;2023-05-07T03:04:17;6.00;;;5.47;;
80175;SDS011;69501;42.124;24.722;2023-05-07T03:06:42;6.78;;;5.70;;
80175;SDS011;69501;42.124;24.722;2023-05-07T03:09:08;7.68;;;5.38;;
80175;SDS011;69501;42.124;24.722;2023-05-07T03:11:34;7.15;;;5.50;;
80175;SDS011;69501;42.124;24.722;2023-05-07T03:14:00;6.32;;;5.70;;
80175;SDS011;69501;42.124;24.722;2023-05-07T03:16:26;9.02;;;6.05;;
80175;SDS011;69501;42.124;24.722;2023-05-07T03:18:52;7.38;;;6.57;;
80175;SDS011;69501;42.124;24.722;2023-05-07T03:21:18;7.75;;;6.07;;
80175;SDS011;69501;42.124;24.722;2023-05-07T03:23:44;5.93;;;5.43;;
80175;SDS011;69501;42.124;24.722;2023-05-07T03:26:10;6.68;;;6.07;;
80175;SDS011;69501;42.124;24.722;2023-05-07T03:28:36;6.13;;;5.63;;
80175;SDS011;69501;42.124;24.722;2023-05-07T03:31:02;6.13;;;5.63;;
80175;SDS011;69501;42.124;24.722;2023-05-07T03:33:27;6.82;;;6.28;;
80175;SDS011;69501;42.124;24.722;2023-05-07T03:35:53;6.90;;;6.28;;
80175;SDS011;69501;42.124;24.722;2023-05-07T03:38:19;7.15;;;6.55;;
80175;SDS011;69501;42.124;24.722;2023-05-07T03:40:44;7.00;;;6.40;;
80175;SDS011;69501;42.124;24.722;2023-05-07T03:43:10;8.32;;;6.15;;
80175;SDS011;69501;42.124;24.722;2023-05-07T03:45:36;7.30;;;6.30;;
80175;SDS011;69501;42.124;24.722;2023-05-07T03:48:01;6.18;;;5.60;;
80175;SDS011;69501;42.124;24.722;2023-05-07T03:50:27;7.72;;;7.03;;
80175;SDS011;69501;42.124;24.722;2023-05-07T03:52:53;6.65;;;6.15;;
80175;SDS011;69501;42.124;24.722;2023-05-07T03:55:18;7.03;;;6.35;;
80175;SDS011;69501;42.124;24.722;2023-05-07T03:57:44;7.50;;;6.82;;
80175;SDS011;69501;42.124;24.722;2023-05-07T04:00:10;6.90;;;6.30;;
80175;SDS011;69501;42.124;24.722;2023-05-07T04:02:36;9.32;;;6.25;;
80175;SDS011;69501;42.124;24.722;2023-05-07T04:05:02;8.00;;;7.30;;
80175;SDS011;69501;42.124;24.722;2023-05-07T04:07:28;8.13;;;7.20;;
80175;SDS011;69501;42.124;24.722;2023-05-07T04:09:53;7.32;;;6.35;;
80175;SDS011;69501;42.124;24.722;2023-05-07T04:12:19;8.63;;;7.82;;
80175;SDS011;69501;42.124;24.722;2023-05-07T04:14:45;9.60;;;8.80;;
80175;SDS011;69501;42.124;24.722;2023-05-07T04:17:10;8.38;;;7.72;;
80175;SDS011;69501;42.124;24.722;2023-05-07T04:19:36;6.78;;;6.18;;
80175;SDS011;69501;42.124;24.722;2023-05-07T04:22:01;7.05;;;6.40;;
80175;SDS011;69501;42.124;24.722;2023-05-07T04:24:27;8.25;;;7.50;;
80175;SDS011;69501;42.124;24.722;2023-05-07T04:26:55;7.10;;;6.50;;
80175;SDS011;69501;42.124;24.722;2023-05-07T04:29:21;7.30;;;6.55;;
80175;SDS011;69501;42.124;24.722;2023-05-07T04:31:47;7.30;;;6.75;;
80175;SDS011;69501;42.124;24.722;2023-05-07T04:34:12;7.03;;;6.45;;
80175;SDS011;69501;42.124;24.722;2023-05-07T04:36:39;7.03;;;6.30;;
80175;SDS011;69501;42.124;24.722;2023-05-07T04:39:05;6.85;;;6.25;;
80175;SDS011;69501;42.124;24.722;2023-05-07T04:41:31;8.63;;;6.82;;
80175;SDS011;69501;42.124;24.722;2023-05-07T04:43:57;6.28;;;5.72;;
80175;SDS011;69501;42.124;24.722;2023-05-07T04:46:24;7.93;;;6.55;;
80175;SDS011;69501;42.124;24.722;2023-05-07T04:48:49;8.15;;;6.38;;
80175;SDS011;69501;42.124;24.722;2023-05-07T04:51:16;5.72;;;5.22;;
80175;SDS011;69501;42.124;24.722;2023-05-07T04:53:42;6.60;;;5.97;;
80175;SDS011;69501;42.124;24.722;2023-05-07T04:56:08;6.90;;;6.30;;
80175;SDS011;69501;42.124;24.722;2023-05-07T04:58:33;7.47;;;6.70;;
80175;SDS011;69501;42.124;24.722;2023-05-07T05:00:59;6.40;;;5.80;;
80175;SDS011;69501;42.124;24.722;2023-05-07T05:03:25;9.43;;;6.88;;
80175;SDS011;69501;42.124;24.722;2023-05-07T05:05:51;7.97;;;6.65;;
80175;SDS011;69501;42.124;24.722;2023-05-07T05:08:17;6.53;;;6.00;;
80175;SDS011;69501;42.124;24.722;2023-05-07T05:10:43;6.50;;;5.80;;
80175;SDS011;69501;42.124;24.722;2023-05-07T05:13:10;7.10;;;6.38;;
80175;SDS011;69501;42.124;24.722;2023-05-07T05:15:37;6.25;;;5.70;;
80175;SDS011;69501;42.124;24.722;2023-05-07T05:18:03;6.20;;;5.63;;
80175;SDS011;69501;42.124;24.722;2023-05-07T05:20:29;6.60;;;6.07;;
80175;SDS011;69501;42.124;24.722;2023-05-07T05:22:55;6.13;;;5.55;;
80175;SDS011;69501;42.124;24.722;2023-05-07T05:25:20;7.05;;;6.25;;
80175;SDS011;69501;42.124;24.722;2023-05-07T05:27:46;7.03;;;6.25;;
80175;SDS011;69501;42.124;24.722;2023-05-07T05:30:12;6.95;;;6.35;;
80175;SDS011;69501;42.124;24.722;2023-05-07T05:32:38;7.35;;;6.40;;
80175;SDS011;69501;42.124;24.722;2023-05-07T05:35:04;6.90;;;6.30;;
80175;SDS011;69501;42.124;24.722;2023-05-07T05:37:30;7.10;;;6.50;;
80175;SDS011;69501;42.124;24.722;2023-05-07T05:39:56;6.40;;;5.97;;
80175;SDS011;69501;42.124;24.722;2023-05-07T05:42:23;6.65;;;5.95;;
80175;SDS011;69501;42.124;24.722;2023-05-07T05:44:48;7.38;;;6.38;;
80175;SDS011;69501;42.124;24.722;2023-05-07T05:47:14;8.70;;;6.60;;
80175;SDS011;69501;42.124;24.722;2023-05-07T05:49:40;7.35;;;6.15;;
80175;SDS011;69501;42.124;24.722;2023-05-07T05:52:05;7.45;;;6.05;;
80175;SDS011;69501;42.124;24.722;2023-05-07T05:54:31;8.20;;;6.00;;
80175;SDS011;69501;42.124;24.722;2023-05-07T05:56:57;7.07;;;5.93;;
80175;SDS011;69501;42.124;24.722;2023-05-07T05:59:23;7.38;;;6.68;;
80175;SDS011;69501;42.124;24.722;2023-05-07T06:01:48;11.15;;;6.93;;
80175;SDS011;69501;42.124;24.722;2023-05-07T06:04:14;9.90;;;6.47;;
80175;SDS011;69501;42.124;24.722;2023-05-07T06:06:40;9.13;;;7.68;;
80175;SDS011;69501;42.124;24.722;2023-05-07T06:09:05;9.43;;;8.13;;
80175;SDS011;69501;42.124;24.722;2023-05-07T06:11:31;9.52;;;7.35;;
80175;SDS011;69501;42.124;24.722;2023-05-07T06:13:57;7.70;;;7.03;;
80175;SDS011;69501;42.124;24.722;2023-05-07T06:16:24;13.55;;;10.63;;
80175;SDS011;69501;42.124;24.722;2023-05-07T06:18:50;7.28;;;6.57;;
80175;SDS011;69501;42.124;24.722;2023-05-07T06:21:16;14.32;;;9.60;;
80175;SDS011;69501;42.124;24.722;2023-05-07T06:23:42;12.90;;;11.32;;
80175;SDS011;69501;42.124;24.722;2023-05-07T06:26:08;9.07;;;8.15;;
80175;SDS011;69501;42.124;24.722;2023-05-07T06:28:33;8.60;;;7.60;;
80175;SDS011;69501;42.124;24.722;2023-05-07T06:31:11;7.55;;;6.32;;
80175;SDS011;69501;42.124;24.722;2023-05-07T06:33:42;9.70;;;8.15;;
80175;SDS011;69501;42.124;24.722;2023-05-07T06:36:09;10.85;;;8.90;;
80175;SDS011;69501;42.124;24.722;2023-05-07T06:38:35;9.43;;;8.32;;
80175;SDS011;69501;42.124;24.722;2023-05-07T06:41:01;8.93;;;6.97;;
80175;SDS011;69501;42.124;24.722;2023-05-07T06:43:26;7.15;;;5.75;;
80175;SDS011;69501;42.124;24.722;2023-05-07T06:45:52;7.30;;;5.55;;
80175;SDS011;69501;42.124;24.722;2023-05-07T06:48:18;7.30;;;6.60;;
80175;SDS011;69501;42.124;24.722;2023-05-07T06:50:43;6.50;;;5.90;;
80175;SDS011;69501;42.124;24.722;2023-05-07T06:53:09;7.05;;;6.35;;
80175;SDS011;69501;42.124;24.722;2023-05-07T06:55:35;9.65;;;7.38;;
80175;SDS011;69501;42.124;24.722;2023-05-07T06:58:00;6.68;;;6.18;;
80175;SDS011;69501;42.124;24.722;2023-05-07T07:00:26;6.65;;;6.05;;
80175;SDS011;69501;42.124;24.722;2023-05-07T07:02:53;7.57;;;6.03;;
80175;SDS011;69501;42.124;24.722;2023-05-07T07:05:19;7.07;;;6.45;;
80175;SDS011;69501;42.124;24.722;2023-05-07T07:07:45;9.18;;;6.90;;
80175;SDS011;69501;42.124;24.722;2023-05-07T07:10:17;9.23;;;5.38;;
80175;SDS011;69501;42.124;24.722;2023-05-07T07:12:49;8.15;;;7.13;;
80175;SDS011;69501;42.124;24.722;2023-05-07T07:15:15;9.32;;;8.30;;
80175;SDS011;69501;42.124;24.722;2023-05-07T07:17:41;7.28;;;6.40;;
80175;SDS011;69501;42.124;24.722;2023-05-07T07:20:07;7.05;;;6.45;;
80175;SDS011;69501;42.124;24.722;2023-05-07T07:22:33;8.38;;;6.88;;
80175;SDS011;69501;42.124;24.722;2023-05-07T07:24:59;6.88;;;6.03;;
80175;SDS011;69501;42.124;24.722;2023-05-07T07:27:25;6.00;;;5.50;;
80175;SDS011;69501;42.124;24.722;2023-05-07T07:29:50;5.25;;;4.80;;
80175;SDS011;69501;42.124;24.722;2023-05-07T07:32:16;6.63;;;5.65;;
80175;SDS011;69501;42.124;24.722;2023-05-07T07:34:42;6.60;;;6.00;;
80175;SDS011;69501;42.124;24.722;2023-05-07T07:37:07;6.13;;;5.25;;
80175;SDS011;69501;42.124;24.722;2023-05-07T07:39:33;6.80;;;5.63;;
80175;SDS011;69501;42.124;24.722;2023-05-07T07:41:59;9.35;;;7.95;;
80175;SDS011;69501;42.124;24.722;2023-05-07T07:44:25;8.80;;;8.00;;
80175;SDS011;69501;42.124;24.722;2023-05-07T07:46:51;9.43;;;6.72;;
80175;SDS011;69501;42.124;24.722;2023-05-07T07:49:16;6.40;;;5.90;;
80175;SDS011;69501;42.124;24.722;2023-05-07T07:51:42;5.88;;;5.28;;
80175;SDS011;69501;42.124;24.722;2023-05-07T07:54:08;8.05;;;5.07;;
80175;SDS011;69501;42.124;24.722;2023-05-07T07:56:34;6.90;;;5.20;;
80175;SDS011;69501;42.124;24.722;2023-05-07T07:59:00;5.80;;;4.57;;
80175;SDS011;69501;42.124;24.722;2023-05-07T08:01:26;6.00;;;5.10;;
80175;SDS011;69501;42.124;24.722;2023-05-07T08:03:51;6.20;;;4.70;;
80175;SDS011;69501;42.124;24.722;2023-05-07T08:06:17;6.97;;;5.15;;
80175;SDS011;69501;42.124;24.722;2023-05-07T08:08:43;6.72;;;5.25;;
80175;SDS011;69501;42.124;24.722;2023-05-07T08:11:09;5.95;;;5.38;;
80175;SDS011;69501;42.124;24.722;2023-05-07T08:13:35;9.48;;;5.57;;
80175;SDS011;69501;42.124;24.722;2023-05-07T08:16:01;6.75;;;5.35;;
80175;SDS011;69501;42.124;24.722;2023-05-07T08:18:27;5.53;;;5.03;;
80175;SDS011;69501;42.124;24.722;2023-05-07T08:20:54;5.43;;;5.03;;
80175;SDS011;69501;42.124;24.722;2023-05-07T08:23:20;8.57;;;5.28;;
80175;SDS011;69501;42.124;24.722;2023-05-07T08:25:46;7.07;;;5.15;;
80175;SDS011;69501;42.124;24.722;2023-05-07T08:28:11;6.25;;;4.85;;
80175;SDS011;69501;42.124;24.722;2023-05-07T08:30:37;5.05;;;4.75;;
80175;SDS011;69501;42.124;24.722;2023-05-07T08:33:02;7.38;;;4.38;;
80175;SDS011;69501;42.124;24.722;2023-05-07T08:35:28;5.18;;;4.60;;
80175;SDS011;69501;42.124;24.722;2023-05-07T08:37:54;4.90;;;4.40;;
80175;SDS011;69501;42.124;24.722;2023-05-07T08:40:25;4.68;;;4.28;;
80175;SDS011;69501;42.124;24.722;2023-05-07T08:42:54;5.18;;;4.75;;
80175;SDS011;69501;42.124;24.722;2023-05-07T08:45:21;4.80;;;4.40;;
80175;SDS011;69501;42.124;24.722;2023-05-07T08:47:50;4.60;;;4.30;;
80175;SDS011;69501;42.124;24.722;2023-05-07T08:50:20;6.22;;;4.05;;
80175;SDS011;69501;42.124;24.722;2023-05-07T08:52:46;4.50;;;4.20;;
80175;SDS011;69501;42.124;24.722;2023-05-07T08:55:12;4.78;;;4.38;;
80175;SDS011;69501;42.124;24.722;2023-05-07T08:57:38;4.22;;;3.70;;
80175;SDS011;69501;42.124;24.722;2023-05-07T09:00:04;4.00;;;3.70;;
80175;SDS011;69501;42.124;24.722;2023-05-07T09:02:32;3.47;;;3.20;;
80175;SDS011;69501;42.124;24.722;2023-05-07T09:04:58;3.75;;;3.38;;
80175;SDS011;69501;42.124;24.722;2023-05-07T09:07:23;4.25;;;3.75;;
80175;SDS011;69501;42.124;24.722;2023-05-07T09:09:51;4.35;;;3.30;;
80175;SDS011;69501;42.124;24.722;2023-05-07T09:12:17;5.47;;;4.05;;
80175;SDS011;69501;42.124;24.722;2023-05-07T09:14:44;4.15;;;3.78;;
80175;SDS011;69501;42.124;24.722;2023-05-07T09:17:10;6.70;;;3.67;;
80175;SDS011;69501;42.124;24.722;2023-05-07T09:19:36;3.55;;;3.25;;
80175;SDS011;69501;42.124;24.722;2023-05-07T09:22:02;3.78;;;3.40;;
80175;SDS011;69501;42.124;24.722;2023-05-07T09:24:29;7.78;;;3.00;;
80175;SDS011;69501;42.124;24.722;2023-05-07T09:27:00;4.25;;;3.28;;
80175;SDS011;69501;42.124;24.722;2023-05-07T09:29:27;3.30;;;2.88;;
80175;SDS011;69501;42.124;24.722;2023-05-07T09:32:00;2.85;;;2.65;;
80175;SDS011;69501;42.124;24.722;2023-05-07T09:34:30;3.50;;;3.08;;
80175;SDS011;69501;42.124;24.722;2023-05-07T09:36:58;3.10;;;2.90;;
80175;SDS011;69501;42.124;24.722;2023-05-07T09:39:26;3.85;;;2.80;;
80175;SDS011;69501;42.124;24.722;2023-05-07T09:41:51;4.50;;;2.92;;
80175;SDS011;69501;42.124;24.722;2023-05-07T09:44:20;3.00;;;2.50;;
80175;SDS011;69501;42.124;24.722;2023-05-07T09:46:47;2.80;;;2.53;;
80175;SDS011;69501;42.124;24.722;2023-05-07T09:49:22;3.92;;;2.50;;
80175;SDS011;69501;42.124;24.722;2023-05-07T09:51:49;3.03;;;2.50;;
80175;SDS011;69501;42.124;24.722;2023-05-07T09:54:16;3.15;;;2.75;;
80175;SDS011;69501;42.124;24.722;2023-05-07T09:56:43;4.38;;;2.90;;
80175;SDS011;69501;42.124;24.722;2023-05-07T09:59:13;3.08;;;2.80;;
80175;SDS011;69501;42.124;24.722;2023-05-07T10:01:40;3.05;;;2.53;;
80175;SDS011;69501;42.124;24.722;2023-05-07T10:04:08;3.72;;;2.50;;
80175;SDS011;69501;42.124;24.722;2023-05-07T10:06:34;3.08;;;2.25;;
80175;SDS011;69501;42.124;24.722;2023-05-07T10:09:01;3.15;;;2.95;;
80175;SDS011;69501;42.124;24.722;2023-05-07T10:11:27;3.88;;;2.78;;
80175;SDS011;69501;42.124;24.722;2023-05-07T10:13:53;4.53;;;2.67;;
80175;SDS011;69501;42.124;24.722;2023-05-07T10:16:20;3.47;;;3.15;;
80175;SDS011;69501;42.124;24.722;2023-05-07T10:18:46;3.22;;;2.60;;
80175;SDS011;69501;42.124;24.722;2023-05-07T10:21:17;4.20;;;2.65;;
80175;SDS011;69501;42.124;24.722;2023-05-07T10:23:45;2.78;;;2.20;;
80175;SDS011;69501;42.124;24.722;2023-05-07T10:26:14;2.47;;;2.38;;
80175;SDS011;69501;42.124;24.722;2023-05-07T10:28:50;3.42;;;2.47;;
80175;SDS011;69501;42.124;24.722;2023-05-07T10:33:53;3.78;;;3.13;;
80175;SDS011;69501;42.124;24.722;2023-05-07T10:36:21;3.67;;;2.83;;
80175;SDS011;69501;42.124;24.722;2023-05-07T10:38:48;2.90;;;2.70;;
80175;SDS011;69501;42.124;24.722;2023-05-07T10:41:14;3.67;;;2.92;;
80175;SDS011;69501;42.124;24.722;2023-05-07T10:43:42;2.90;;;2.38;;
80175;SDS011;69501;42.124;24.722;2023-05-07T10:46:09;4.60;;;2.60;;
80175;SDS011;69501;42.124;24.722;2023-05-07T10:49:06;2.90;;;2.70;;
80175;SDS011;69501;42.124;24.722;2023-05-07T10:51:33;4.50;;;2.80;;
80175;SDS011;69501;42.124;24.722;2023-05-07T10:56:34;2.55;;;2.30;;
80175;SDS011;69501;42.124;24.722;2023-05-07T11:04:23;3.88;;;2.92;;
80175;SDS011;69501;42.124;24.722;2023-05-07T11:15:12;2.33;;;2.13;;
80175;SDS011;69501;42.124;24.722;2023-05-07T11:17:53;3.03;;;2.28;;
80175;SDS011;69501;42.124;24.722;2023-05-07T11:26:03;4.40;;;2.50;;
80175;SDS011;69501;42.124;24.722;2023-05-07T11:31:08;3.67;;;2.45;;
80175;SDS011;69501;42.124;24.722;2023-05-07T11:33:35;4.57;;;2.40;;
80175;SDS011;69501;42.124;24.722;2023-05-07T11:36:03;2.30;;;2.10;;
80175;SDS011;69501;42.124;24.722;2023-05-07T11:38:30;2.38;;;2.20;;
80175;SDS011;69501;42.124;24.722;2023-05-07T11:40:57;2.25;;;2.15;;
80175;SDS011;69501;42.124;24.722;2023-05-07T11:43:30;3.10;;;2.17;;
80175;SDS011;69501;42.124;24.722;2023-05-07T11:46:10;2.35;;;2.13;;
80175;SDS011;69501;42.124;24.722;2023-05-07T11:48:36;2.42;;;2.15;;
80175;SDS011;69501;42.124;24.722;2023-05-07T11:51:03;2.15;;;2.00;;
80175;SDS011;69501;42.124;24.722;2023-05-07T11:53:40;3.85;;;2.25;;
80175;SDS011;69501;42.124;24.722;2023-05-07T11:56:11;3.78;;;2.30;;
80175;SDS011;69501;42.124;24.722;2023-05-07T11:58:38;3.28;;;2.58;;
80175;SDS011;69501;42.124;24.722;2023-05-07T12:01:06;4.80;;;2.47;;
80175;SDS011;69501;42.124;24.722;2023-05-07T12:03:34;2.97;;;2.40;;
80175;SDS011;69501;42.124;24.722;2023-05-07T12:06:02;2.50;;;2.10;;
80175;SDS011;69501;42.124;24.722;2023-05-07T12:08:30;2.58;;;2.20;;
80175;SDS011;69501;42.124;24.722;2023-05-07T12:10:56;3.72;;;2.40;;
80175;SDS011;69501;42.124;24.722;2023-05-07T12:13:22;2.78;;;2.42;;
80175;SDS011;69501;42.124;24.722;2023-05-07T12:15:50;3.13;;;2.50;;
80175;SDS011;69501;42.124;24.722;2023-05-07T12:18:20;2.53;;;2.33;;
80175;SDS011;69501;42.124;24.722;2023-05-07T12:20:46;2.25;;;2.05;;
80175;SDS011;69501;42.124;24.722;2023-05-07T12:23:13;2.38;;;2.17;;
80175;SDS011;69501;42.124;24.722;2023-05-07T12:25:39;3.38;;;2.35;;
80175;SDS011;69501;42.124;24.722;2023-05-07T12:28:13;3.42;;;2.25;;
80175;SDS011;69501;42.124;24.722;2023-05-07T12:30:40;3.55;;;2.58;;
80175;SDS011;69501;42.124;24.722;2023-05-07T12:33:08;2.60;;;2.40;;
80175;SDS011;69501;42.124;24.722;2023-05-07T12:35:38;2.30;;;2.10;;
80175;SDS011;69501;42.124;24.722;2023-05-07T12:38:09;2.40;;;2.30;;
80175;SDS011;69501;42.124;24.722;2023-05-07T12:40:37;3.20;;;2.90;;
80175;SDS011;69501;42.124;24.722;2023-05-07T12:43:07;4.18;;;2.15;;
80175;SDS011;69501;42.124;24.722;2023-05-07T12:45:36;3.30;;;2.53;;
80175;SDS011;69501;42.124;24.722;2023-05-07T12:48:06;3.22;;;2.45;;
80175;SDS011;69501;42.124;24.722;2023-05-07T12:50:32;2.42;;;2.22;;
80175;SDS011;69501;42.124;24.722;2023-05-07T12:52:58;2.10;;;2.00;;
80175;SDS011;69501;42.124;24.722;2023-05-07T12:55:24;2.42;;;2.13;;
80175;SDS011;69501;42.124;24.722;2023-05-07T12:57:50;3.53;;;2.42;;
80175;SDS011;69501;42.124;24.722;2023-05-07T13:00:18;3.10;;;2.22;;
80175;SDS011;69501;42.124;24.722;2023-05-07T13:03:00;2.95;;;2.65;;
80175;SDS011;69501;42.124;24.722;2023-05-07T13:05:25;2.30;;;2.20;;
80175;SDS011;69501;42.124;24.722;2023-05-07T13:07:57;2.78;;;2.53;;
80175;SDS011;69501;42.124;24.722;2023-05-07T13:10:23;2.43;;;2.30;;
80175;SDS011;69501;42.124;24.722;2023-05-07T13:12:50;2.08;;;1.88;;
80175;SDS011;69501;42.124;24.722;2023-05-07T13:15:16;3.60;;;2.60;;
80175;SDS011;69501;42.124;24.722;2023-05-07T13:17:42;2.63;;;2.20;;
80175;SDS011;69501;42.124;24.722;2023-05-07T13:20:11;2.67;;;2.33;;
80175;SDS011;69501;42.124;24.722;2023-05-07T13:22:37;5.28;;;2.08;;
80175;SDS011;69501;42.124;24.722;2023-05-07T13:25:04;2.55;;;2.35;;
80175;SDS011;69501;42.124;24.722;2023-05-07T13:27:30;2.33;;;2.13;;
80175;SDS011;69501;42.124;24.722;2023-05-07T13:29:56;4.97;;;2.25;;
80175;SDS011;69501;42.124;24.722;2023-05-07T13:32:22;2.38;;;2.10;;
80175;SDS011;69501;42.124;24.722;2023-05-07T13:34:47;2.40;;;2.20;;
80175;SDS011;69501;42.124;24.722;2023-05-07T13:37:13;3.38;;;2.20;;
80175;SDS011;69501;42.124;24.722;2023-05-07T13:39:39;3.25;;;2.10;;
80175;SDS011;69501;42.124;24.722;2023-05-07T13:42:05;2.13;;;1.98;;
80175;SDS011;69501;42.124;24.722;2023-05-07T13:44:31;4.03;;;2.25;;
80175;SDS011;69501;42.124;24.722;2023-05-07T13:46:57;5.43;;;1.98;;
80175;SDS011;69501;42.124;24.722;2023-05-07T13:49:25;3.65;;;2.05;;
80175;SDS011;69501;42.124;24.722;2023-05-07T13:51:51;2.53;;;2.33;;
80175;SDS011;69501;42.124;24.722;2023-05-07T13:54:16;3.17;;;2.47;;
80175;SDS011;69501;42.124;24.722;2023-05-07T13:56:42;2.40;;;2.13;;
80175;SDS011;69501;42.124;24.722;2023-05-07T13:59:08;2.00;;;1.90;;
80175;SDS011;69501;42.124;24.722;2023-05-07T14:01:34;2.42;;;2.22;;
80175;SDS011;69501;42.124;24.722;2023-05-07T14:03:59;2.30;;;1.92;;
80175;SDS011;69501;42.124;24.722;2023-05-07T14:06:25;4.13;;;2.10;;
80175;SDS011;69501;42.124;24.722;2023-05-07T14:08:51;2.20;;;2.00;;
80175;SDS011;69501;42.124;24.722;2023-05-07T14:11:17;4.32;;;2.08;;
80175;SDS011;69501;42.124;24.722;2023-05-07T14:13:42;4.35;;;2.38;;
80175;SDS011;69501;42.124;24.722;2023-05-07T14:16:08;3.13;;;2.10;;
80175;SDS011;69501;42.124;24.722;2023-05-07T14:18:34;2.40;;;1.80;;
80175;SDS011;69501;42.124;24.722;2023-05-07T14:21:01;2.22;;;1.80;;
80175;SDS011;69501;42.124;24.722;2023-05-07T14:23:27;3.13;;;1.92;;
80175;SDS011;69501;42.124;24.722;2023-05-07T14:25:53;3.47;;;2.20;;
80175;SDS011;69501;42.124;24.722;2023-05-07T14:28:19;1.80;;;1.70;;
80175;SDS011;69501;42.124;24.722;2023-05-07T14:30:45;1.50;;;1.40;;
80175;SDS011;69501;42.124;24.722;2023-05-07T14:33:10;2.20;;;1.88;;
80175;SDS011;69501;42.124;24.722;2023-05-07T14:35:36;2.13;;;2.00;;
80175;SDS011;69501;42.124;24.722;2023-05-07T14:38:02;2.30;;;2.05;;
80175;SDS011;69501;42.124;24.722;2023-05-07T14:40:27;2.67;;;1.98;;
80175;SDS011;69501;42.124;24.722;2023-05-07T14:42:53;3.42;;;1.58;;
80175;SDS011;69501;42.124;24.722;2023-05-07T14:45:20;3.88;;;1.70;;
80175;SDS011;69501;42.124;24.722;2023-05-07T14:47:46;4.13;;;2.05;;
80175;SDS011;69501;42.124;24.722;2023-05-07T14:50:11;2.28;;;1.77;;
80175;SDS011;69501;42.124;24.722;2023-05-07T14:52:37;2.38;;;1.88;;
80175;SDS011;69501;42.124;24.722;2023-05-07T14:55:03;2.50;;;2.30;;
80175;SDS011;69501;42.124;24.722;2023-05-07T14:57:29;5.75;;;1.98;;